LELN/LEN METAR and TAF weather

Enter ICAO airport designator
Station Type Date Time Source
LELN METAR 2020/02/29 02:30 UTC NOAA

LELN 290230Z AUTO 21017KT CAVOK 08/02 Q1008


Station Type Date Time Source
LELN Decoded METAR 2020/02/29 02:30 UTC NOAA

Leon / Virgen Del Camino, Spain (LELN) 42-35N 005-39W 914M
Feb 28, 2020 - 09:30 PM EST / 2020.02.29 0230 UTC
Wind: from the SSW (210 degrees) at 20 MPH (17 KT):0
Visibility: greater than 7 mile(s):0
Temperature: 46 F (8 C)
Dew Point: 35 F (2 C)
Relative Humidity: 65%
Pressure (altimeter): 29.77 in. Hg (1008 hPa)
ob: LELN 290230Z AUTO 21017KT CAVOK 08/02 Q1008
cycle: 2

Station Type Date Time Source
LELN TAF 2018/03/28 12:27 UTC NOAA

TAF LELN 281100Z 2812/2824 27015KT CAVOK
TEMPO 2814/2821 27015G26KT
BECMG 2822/2824 31010KT PROB40
TEMPO 2815/2824 RA BKN030

Example: see airport list